createdAt,value
2019-01-23T00:01:23.758Z,1.20
2019-01-23T00:03:57.210Z,1.10
2019-01-23T00:06:28.909Z,1.07
2019-01-23T00:09:02.726Z,1.30
2019-01-23T00:11:33.527Z,1.63
2019-01-23T00:14:03.867Z,0.90
2019-01-23T00:16:33.798Z,0.87
2019-01-23T00:19:03.205Z,0.77
2019-01-23T00:21:39.043Z,0.50
2019-01-23T00:24:10.194Z,0.57
2019-01-23T00:26:45.848Z,1.13
2019-01-23T00:29:21.241Z,0.50
2019-01-23T00:31:50.789Z,0.90
2019-01-23T00:34:22.855Z,0.60
2019-01-23T00:36:54.513Z,0.53
2019-01-23T00:39:25.398Z,0.60
2019-01-23T00:41:56.164Z,0.30
2019-01-23T00:44:26.702Z,0.50
2019-01-23T00:47:01.504Z,0.60
2019-01-23T00:49:33.568Z,1.13
2019-01-23T00:52:07.822Z,1.13
2019-01-23T00:54:41.037Z,1.10
2019-01-23T00:57:12.906Z,0.90
2019-01-23T00:59:42.237Z,0.73
2019-01-23T01:02:12.073Z,1.10
2019-01-23T01:04:41.683Z,0.70
2019-01-23T01:07:11.566Z,1.00
2019-01-23T01:09:40.893Z,1.10
2019-01-23T01:12:10.026Z,1.10
2019-01-23T01:14:39.568Z,1.00
2019-01-23T01:17:08.711Z,1.30
2019-01-23T01:19:40.956Z,0.87
2019-01-23T01:22:11.324Z,1.27
2019-01-23T01:24:43.247Z,0.90
2019-01-23T01:27:14.736Z,0.80
2019-01-23T01:29:45.558Z,1.00
2019-01-23T01:32:15.872Z,1.60
2019-01-23T01:34:45.727Z,0.70
2019-01-23T01:37:15.666Z,0.50
2019-01-23T01:39:46.954Z,0.60
2019-01-23T01:42:17.213Z,0.70
2019-01-23T01:44:52.536Z,0.50
2019-01-23T01:47:22.200Z,0.50
2019-01-23T01:49:52.593Z,0.60
2019-01-23T01:52:24.605Z,0.70
2019-01-23T01:54:59.442Z,0.60
2019-01-23T01:57:30.354Z,0.50
2019-01-23T02:00:06.929Z,0.47
2019-01-23T02:02:38.480Z,0.43
2019-01-23T02:05:11.306Z,0.67
2019-01-23T02:07:43.500Z,0.67
2019-01-23T02:10:18.871Z,0.77
2019-01-23T02:12:49.734Z,0.70
2019-01-23T02:15:22.605Z,0.53
2019-01-23T02:17:51.822Z,0.57
2019-01-23T02:20:25.072Z,1.17
2019-01-23T02:22:55.541Z,0.40
2019-01-23T02:25:25.261Z,0.37
2019-01-23T02:27:58.092Z,0.67
2019-01-23T02:30:27.873Z,0.50
2019-01-23T02:32:58.601Z,0.80
2019-01-23T02:35:28.751Z,0.80
2019-01-23T02:37:58.050Z,0.60
2019-01-23T02:40:28.394Z,0.73
2019-01-23T02:42:57.925Z,0.83
2019-01-23T02:45:31.642Z,0.60
2019-01-23T02:48:06.157Z,0.57
2019-01-23T02:50:37.800Z,0.40
2019-01-23T02:53:08.092Z,0.67
2019-01-23T02:55:38.717Z,0.50
2019-01-23T02:58:12.371Z,0.53
2019-01-23T03:00:46.990Z,0.67
2019-01-23T03:03:17.187Z,0.77
2019-01-23T03:05:47.086Z,0.47
2019-01-23T03:08:16.792Z,0.50
2019-01-23T03:10:46.839Z,0.50
2019-01-23T03:13:18.054Z,0.43
2019-01-23T03:15:47.089Z,0.60
2019-01-23T03:18:16.535Z,0.70
2019-01-23T03:20:47.011Z,0.70
2019-01-23T03:23:17.846Z,0.73
2019-01-23T03:25:47.924Z,0.50
2019-01-23T03:28:18.765Z,0.90
2019-01-23T03:30:51.638Z,0.77
2019-01-23T03:33:22.872Z,1.27
2019-01-23T03:35:52.253Z,0.70
2019-01-23T03:38:22.733Z,0.60
2019-01-23T03:40:53.968Z,0.80
2019-01-23T03:43:27.782Z,0.60
2019-01-23T03:45:58.610Z,0.43
2019-01-23T03:48:29.971Z,0.67
2019-01-23T03:51:03.087Z,0.60
2019-01-23T03:53:32.958Z,0.70
2019-01-23T03:56:03.657Z,0.80
2019-01-23T03:58:33.770Z,0.50
2019-01-23T04:01:04.379Z,0.97
2019-01-23T04:03:37.339Z,0.50
2019-01-23T04:06:09.305Z,0.80
2019-01-23T04:08:39.354Z,0.47
2019-01-23T04:11:11.770Z,1.17
2019-01-23T04:13:42.710Z,0.60
2019-01-23T04:16:15.925Z,0.93
2019-01-23T04:18:46.423Z,0.80
2019-01-23T04:21:16.947Z,0.40
2019-01-23T04:23:48.020Z,0.90
2019-01-23T04:26:18.827Z,0.87
2019-01-23T04:28:48.703Z,0.43
2019-01-23T04:31:21.077Z,0.93
2019-01-23T04:33:51.507Z,0.77
2019-01-23T04:36:24.173Z,0.50
2019-01-23T04:38:53.928Z,0.57
2019-01-23T04:41:25.840Z,0.53
2019-01-23T04:43:56.276Z,0.20
2019-01-23T04:46:35.842Z,0.40
2019-01-23T04:49:06.638Z,0.70
2019-01-23T04:51:45.720Z,0.60
2019-01-23T04:54:17.466Z,0.50
2019-01-23T04:56:51.970Z,0.60
2019-01-23T04:59:26.439Z,0.57
2019-01-23T05:01:56.842Z,0.73
2019-01-23T05:04:26.181Z,0.30
2019-01-23T05:06:55.315Z,0.50
2019-01-23T05:09:25.429Z,0.70
2019-01-23T05:11:55.944Z,0.77
2019-01-23T05:14:27.142Z,0.60
2019-01-23T05:16:57.263Z,0.30
2019-01-23T05:19:29.620Z,0.40
2019-01-23T05:22:01.464Z,0.40
2019-01-23T05:24:38.214Z,0.50
2019-01-23T05:27:07.265Z,0.50
2019-01-23T05:29:37.617Z,0.53
2019-01-23T05:32:07.400Z,0.73
2019-01-23T05:34:38.679Z,0.43
2019-01-23T05:37:13.226Z,0.40
2019-01-23T05:39:45.764Z,0.47
2019-01-23T05:42:17.290Z,0.40
2019-01-23T05:44:49.750Z,0.67
2019-01-23T05:47:20.197Z,0.40
2019-01-23T05:49:49.271Z,0.93
2019-01-23T05:52:19.292Z,0.70
2019-01-23T05:54:49.749Z,0.50
2019-01-23T05:57:22.886Z,0.53
2019-01-23T05:59:53.645Z,0.57
2019-01-23T06:02:24.700Z,0.70
2019-01-23T06:04:55.584Z,0.70
2019-01-23T06:07:30.535Z,0.90
2019-01-23T06:10:02.581Z,0.60
2019-01-23T06:12:35.024Z,0.77
2019-01-23T06:15:07.572Z,0.60
2019-01-23T06:17:40.272Z,0.30
2019-01-23T06:20:16.851Z,0.60
2019-01-23T06:22:47.221Z,0.63
2019-01-23T06:25:16.970Z,0.70
2019-01-23T06:27:49.304Z,0.77
2019-01-23T06:30:21.158Z,1.00
2019-01-23T06:32:52.221Z,1.03
2019-01-23T06:35:26.702Z,0.57
2019-01-23T06:38:02.601Z,0.50
2019-01-23T06:40:35.284Z,0.50
2019-01-23T06:43:07.240Z,0.70
2019-01-23T06:45:37.951Z,0.93
2019-01-23T06:48:13.024Z,0.80
2019-01-23T06:50:43.855Z,0.77
2019-01-23T06:53:14.585Z,0.80
2019-01-23T06:55:47.433Z,0.40
2019-01-23T06:58:24.705Z,0.20
2019-01-23T07:03:59.300Z,0.50
2019-01-23T07:21:58.515Z,0.50
2019-01-23T07:24:30.244Z,0.60
2019-01-23T07:27:00.169Z,0.60
2019-01-23T07:29:30.266Z,0.60
2019-01-23T07:32:00.319Z,0.50
2019-01-23T07:34:32.774Z,1.00
2019-01-23T07:37:04.101Z,1.20
2019-01-23T07:39:35.191Z,0.50
2019-01-23T07:42:08.479Z,0.60
2019-01-23T07:44:40.694Z,0.50
2019-01-23T07:47:11.027Z,0.67
2019-01-23T07:49:43.752Z,0.33
2019-01-23T07:52:15.825Z,0.50
2019-01-23T07:54:48.392Z,0.40
2019-01-23T07:57:19.078Z,0.57
2019-01-23T07:59:50.129Z,0.60
2019-01-23T08:02:20.995Z,0.63
2019-01-23T08:04:50.831Z,0.80
2019-01-23T08:07:19.883Z,0.50
2019-01-23T08:09:57.770Z,0.70
2019-01-23T08:12:29.563Z,0.53
2019-01-23T08:15:01.904Z,0.80
2019-01-23T08:17:36.662Z,0.33
2019-01-23T08:20:11.947Z,0.50
2019-01-23T08:22:46.023Z,1.03
2019-01-23T08:25:18.492Z,0.50
2019-01-23T08:27:48.992Z,0.53
2019-01-23T08:30:22.927Z,0.60
2019-01-23T08:33:08.023Z,1.13
2019-01-23T08:35:41.639Z,0.30
2019-01-23T08:38:13.643Z,0.60
2019-01-23T08:40:44.776Z,0.30
2019-01-23T08:43:24.366Z,0.50
2019-01-23T08:45:57.336Z,0.57
2019-01-23T09:02:07.991Z,0.60
2019-01-23T09:04:50.937Z,1.07
2019-01-23T09:07:20.635Z,25.67
2019-01-23T09:10:12.343Z,0.43
2019-01-23T09:12:41.791Z,0.33
2019-01-23T09:18:02.391Z,0.93
2019-01-23T09:20:35.740Z,0.50
2019-01-23T09:23:06.487Z,0.40
2019-01-23T09:25:54.152Z,0.90
2019-01-23T09:28:28.206Z,0.43
2019-01-23T09:31:13.472Z,0.60
2019-01-23T09:33:52.307Z,0.57
2019-01-23T09:38:35.885Z,0.47
2019-01-23T09:41:12.881Z,0.43
2019-01-23T09:44:58.367Z,0.40
2019-01-23T09:47:52.359Z,0.40
2019-01-23T09:50:34.912Z,0.43
2019-01-23T09:53:16.303Z,0.37
2019-01-23T09:55:54.172Z,0.40
2019-01-23T09:58:23.985Z,1.20
2019-01-23T10:00:59.551Z,0.67
2019-01-23T10:03:24.837Z,1.27
2019-01-23T10:05:55.719Z,0.57
2019-01-23T10:08:27.759Z,0.63
2019-01-23T10:10:59.044Z,0.40
2019-01-23T10:13:31.323Z,0.50
2019-01-23T10:16:05.541Z,0.77
2019-01-23T10:18:37.216Z,0.57
2019-01-23T10:21:08.026Z,0.40
2019-01-23T10:23:40.891Z,0.40
2019-01-23T10:26:14.299Z,0.40
2019-01-23T10:28:44.270Z,0.63
2019-01-23T10:31:13.580Z,0.90
2019-01-23T10:33:45.930Z,0.30
2019-01-23T10:36:17.596Z,0.47
2019-01-23T10:38:48.775Z,0.40
2019-01-23T10:41:22.171Z,0.93
2019-01-23T10:43:54.523Z,0.50
2019-01-23T10:46:31.166Z,0.90
2019-01-23T10:49:01.817Z,0.50
2019-01-23T10:54:09.908Z,0.50
2019-01-23T10:56:39.811Z,0.50
2019-01-23T10:59:15.584Z,0.47
2019-01-23T11:01:48.218Z,0.40
2019-01-23T11:04:18.999Z,0.43
2019-01-23T11:06:51.858Z,0.47
2019-01-23T11:09:23.611Z,0.57
2019-01-23T11:11:56.618Z,0.77
2019-01-23T11:14:27.074Z,0.33
2019-01-23T11:17:00.107Z,0.60
2019-01-23T11:19:29.150Z,1.60
2019-01-23T11:21:58.747Z,0.40
2019-01-23T11:24:29.918Z,0.77
2019-01-23T11:27:00.996Z,0.30
2019-01-23T11:29:35.332Z,0.70
2019-01-23T11:32:09.075Z,0.50
2019-01-23T11:34:43.156Z,0.40
2019-01-23T11:37:13.556Z,0.60
2019-01-23T11:39:43.314Z,0.57
2019-01-23T11:42:16.086Z,0.70
2019-01-23T11:44:45.179Z,0.30
2019-01-23T11:47:15.203Z,0.50
2019-01-23T11:49:46.520Z,0.27
2019-01-23T11:52:18.038Z,0.30
2019-01-23T11:54:48.450Z,0.27
2019-01-23T11:57:21.786Z,0.40
2019-01-23T11:59:54.778Z,0.40
2019-01-23T12:02:30.566Z,0.73
2019-01-23T12:04:55.124Z,0.80
2019-01-23T12:07:25.135Z,0.40
2019-01-23T12:09:55.147Z,0.40
2019-01-23T12:12:24.254Z,0.90
2019-01-23T12:14:53.366Z,0.27
2019-01-23T12:17:22.403Z,1.00
2019-01-23T12:19:51.632Z,0.50
2019-01-23T12:22:20.869Z,0.90
2019-01-23T12:24:52.897Z,3.87
2019-01-23T12:27:22.207Z,0.53
2019-01-23T12:29:52.574Z,0.70
2019-01-23T12:32:22.112Z,0.37
2019-01-23T12:34:53.017Z,0.60
2019-01-23T12:37:22.217Z,0.33
2019-01-23T12:39:51.942Z,1.00
2019-01-23T12:42:21.314Z,0.40
2019-01-23T12:44:50.466Z,1.17
2019-01-23T12:47:21.510Z,0.70
2019-01-23T12:49:51.290Z,0.33
2019-01-23T12:52:21.385Z,3.70
2019-01-23T12:54:51.698Z,0.43
2019-01-23T12:57:21.356Z,0.37
2019-01-23T12:59:51.686Z,0.50
2019-01-23T13:02:22.549Z,0.80
2019-01-23T13:04:51.855Z,0.40
2019-01-23T13:07:21.130Z,0.40
2019-01-23T13:09:50.264Z,0.50
2019-01-23T13:12:19.406Z,0.37
2019-01-23T13:14:49.626Z,0.30
2019-01-23T13:17:18.944Z,0.60
2019-01-23T13:19:48.033Z,0.60
2019-01-23T13:22:18.074Z,0.80
2019-01-23T13:24:47.424Z,0.40
2019-01-23T13:27:16.967Z,0.40
2019-01-23T13:29:46.471Z,0.50
2019-01-23T13:32:20.258Z,0.70
2019-01-23T13:34:53.834Z,0.40
2019-01-23T13:37:24.751Z,0.60
2019-01-23T13:39:57.935Z,0.40
2019-01-23T13:42:28.011Z,0.73
2019-01-23T13:44:57.139Z,0.40
2019-01-23T13:47:26.839Z,0.73
2019-01-23T13:49:56.393Z,0.80
2019-01-23T13:52:30.280Z,0.80
2019-01-23T13:55:01.379Z,0.73
2019-01-23T13:57:32.662Z,0.40
2019-01-23T14:00:02.581Z,0.60
2019-01-23T14:02:32.751Z,0.70
2019-01-23T14:05:01.959Z,0.40
2019-01-23T14:07:31.796Z,0.40
2019-01-23T14:10:09.569Z,0.70
2019-01-23T14:12:38.802Z,0.60
2019-01-23T14:15:09.920Z,0.60
2019-01-23T14:17:39.336Z,0.73
2019-01-23T14:20:11.900Z,0.97
2019-01-23T14:22:41.250Z,0.83
2019-01-23T14:25:13.277Z,0.57
2019-01-23T14:27:42.751Z,1.10
2019-01-23T14:30:19.210Z,0.43
2019-01-23T14:32:48.516Z,0.50
2019-01-23T14:35:20.353Z,0.40
2019-01-23T14:37:51.193Z,1.20
2019-01-23T14:40:21.343Z,0.40
2019-01-23T14:42:51.691Z,0.67
2019-01-23T14:45:21.736Z,1.77
2019-01-23T14:47:50.907Z,0.97
2019-01-23T14:50:24.893Z,0.57
2019-01-23T14:52:53.613Z,0.50
2019-01-23T14:55:23.433Z,1.33
2019-01-23T14:57:52.721Z,0.90
2019-01-23T15:00:55.483Z,1.00
2019-01-23T15:03:28.210Z,0.90
2019-01-23T15:05:57.547Z,1.10
2019-01-23T15:08:30.992Z,0.50
2019-01-23T15:11:00.774Z,0.60
2019-01-23T15:13:30.059Z,1.37
2019-01-23T15:16:01.620Z,0.37
2019-01-23T15:18:30.885Z,0.80
2019-01-23T15:21:02.714Z,0.80
2019-01-23T15:23:34.587Z,0.47
2019-01-23T15:26:04.752Z,0.60
2019-01-23T15:28:38.854Z,0.70
2019-01-23T15:31:12.472Z,0.60
2019-01-23T15:33:55.249Z,0.70
2019-01-23T15:36:25.739Z,1.70
2019-01-23T15:38:56.234Z,1.03
2019-01-23T15:41:26.799Z,0.90
2019-01-23T15:44:10.259Z,0.50
2019-01-23T15:46:47.927Z,1.60
2019-01-23T15:49:21.226Z,0.53
2019-01-23T15:51:56.576Z,1.10
2019-01-23T15:54:28.740Z,0.80
2019-01-23T15:57:01.027Z,0.63
2019-01-23T15:59:33.193Z,1.17
2019-01-23T16:02:02.247Z,0.80
2019-01-23T16:04:37.371Z,1.10
2019-01-23T16:07:08.180Z,1.20
2019-01-23T16:09:40.903Z,0.30
2019-01-23T16:12:16.906Z,1.10
2019-01-23T16:14:50.538Z,1.87
2019-01-23T16:17:26.617Z,0.60
2019-01-23T16:19:57.804Z,0.50
2019-01-23T16:22:27.316Z,0.73
2019-01-23T16:24:59.123Z,0.63
2019-01-23T16:27:31.324Z,0.90
2019-01-23T16:30:07.658Z,0.90
2019-01-23T16:32:42.081Z,0.63
2019-01-23T16:35:13.937Z,1.30
2019-01-23T16:37:46.395Z,1.30
2019-01-23T16:40:16.658Z,1.30
2019-01-23T16:42:46.226Z,1.23
2019-01-23T16:45:16.538Z,1.30
2019-01-23T16:47:49.765Z,1.53
2019-01-23T16:50:20.951Z,0.87
2019-01-23T16:52:51.668Z,1.30
2019-01-23T16:55:23.317Z,0.50
2019-01-23T16:57:54.212Z,0.53
2019-01-23T17:00:31.717Z,0.50
2019-01-23T17:03:05.210Z,0.37
2019-01-23T17:05:36.007Z,1.07
2019-01-23T17:08:09.816Z,1.53
2019-01-23T17:10:42.688Z,1.60
2019-01-23T17:13:14.608Z,1.43
2019-01-23T17:15:44.205Z,0.87
2019-01-23T17:18:14.012Z,1.20
2019-01-23T17:20:50.017Z,1.20
2019-01-23T17:23:28.113Z,1.57
2019-01-23T17:29:04.990Z,0.73
2019-01-23T17:31:36.178Z,1.70
2019-01-23T17:34:08.778Z,0.90
2019-01-23T17:36:41.081Z,0.90
2019-01-23T17:39:15.902Z,1.60
2019-01-23T17:41:50.648Z,1.30
2019-01-23T17:44:21.654Z,1.10
2019-01-23T17:46:55.277Z,1.03
2019-01-23T17:52:20.604Z,2.13
2019-01-23T17:54:51.849Z,1.67
2019-01-23T17:57:24.815Z,0.93
2019-01-23T17:59:58.651Z,0.97
2019-01-23T18:02:29.074Z,0.40
2019-01-23T18:05:04.431Z,0.60
2019-01-23T18:07:36.965Z,0.97
2019-01-23T18:10:14.766Z,1.70
2019-01-23T18:12:46.959Z,0.70
2019-01-23T18:15:20.004Z,1.10
2019-01-23T18:17:52.553Z,0.73
2019-01-23T18:20:27.096Z,1.23
2019-01-23T18:22:57.481Z,1.40
2019-01-23T18:25:30.666Z,1.37
2019-01-23T18:28:00.040Z,1.57
2019-01-23T18:31:08.026Z,1.20
2019-01-23T18:36:46.654Z,1.63
2019-01-23T18:41:31.603Z,1.27
2019-01-23T18:45:17.805Z,1.67
2019-01-23T18:49:07.719Z,1.00
2019-01-23T18:51:47.666Z,1.00
2019-01-23T18:54:18.502Z,2.23
2019-01-23T18:56:51.158Z,1.90
2019-01-23T18:59:21.171Z,1.03
2019-01-23T19:01:58.637Z,1.47
2019-01-23T19:04:28.860Z,2.13
2019-01-23T19:07:02.533Z,1.47
2019-01-23T19:09:32.524Z,2.13
2019-01-23T19:12:11.087Z,4.97
2019-01-23T19:14:45.621Z,6.37
2019-01-23T19:17:17.036Z,4.40
2019-01-23T19:19:50.535Z,10.33
2019-01-23T19:22:24.080Z,12.90
2019-01-23T19:24:55.166Z,10.20
2019-01-23T19:27:24.611Z,7.60
2019-01-23T19:29:56.437Z,6.40
2019-01-23T19:32:40.492Z,8.80
2019-01-23T19:35:11.419Z,6.97
2019-01-23T19:37:45.015Z,5.37
2019-01-23T19:40:17.081Z,6.60
2019-01-23T19:42:51.707Z,7.87
2019-01-23T19:45:24.587Z,8.30
2019-01-23T19:48:00.758Z,4.17
2019-01-23T19:50:31.276Z,6.90
2019-01-23T19:53:01.294Z,11.30
2019-01-23T19:55:35.586Z,11.20
2019-01-23T19:58:09.212Z,7.90
2019-01-23T20:00:47.242Z,4.50
2019-01-23T20:03:22.130Z,4.40
2019-01-23T20:05:55.339Z,3.90
2019-01-23T20:08:30.262Z,4.40
2019-01-23T20:11:17.499Z,4.90
2019-01-23T20:13:47.901Z,7.03
2019-01-23T20:16:20.402Z,8.77
2019-01-23T20:18:56.839Z,7.10
2019-01-23T20:21:42.021Z,6.60
2019-01-23T20:24:14.347Z,6.40
2019-01-23T20:26:45.860Z,8.17
2019-01-23T20:29:17.121Z,6.80
2019-01-23T20:31:46.597Z,6.20
2019-01-23T20:34:20.614Z,8.20
2019-01-23T20:36:52.666Z,11.73
2019-01-23T20:39:31.992Z,11.03
2019-01-23T20:42:08.834Z,11.00
2019-01-23T20:44:44.061Z,9.53
2019-01-23T20:47:19.745Z,10.37
2019-01-23T20:49:50.153Z,9.63
2019-01-23T20:52:24.774Z,9.77
2019-01-23T20:55:00.554Z,11.47
2019-01-23T20:57:31.102Z,12.80
2019-01-23T21:00:03.777Z,17.47
2019-01-23T21:02:39.268Z,10.50
2019-01-23T21:05:12.378Z,9.93
2019-01-23T21:07:48.791Z,8.50
2019-01-23T21:10:21.330Z,6.50
2019-01-23T21:12:53.915Z,3.90
2019-01-23T21:15:34.945Z,2.50
2019-01-23T21:18:07.712Z,3.17
2019-01-23T21:20:48.668Z,2.67
2019-01-23T21:23:29.114Z,3.93
2019-01-23T21:28:36.062Z,5.30
2019-01-23T21:31:05.517Z,6.37
2019-01-23T21:33:42.030Z,5.77
2019-01-23T21:36:11.552Z,5.10
2019-01-23T21:38:46.950Z,4.17
2019-01-23T21:41:20.556Z,2.70
2019-01-23T21:43:53.822Z,3.07
2019-01-23T21:46:26.242Z,3.53
2019-01-23T21:49:01.707Z,4.83
2019-01-23T21:51:33.199Z,5.50
2019-01-23T21:54:06.362Z,5.87
2019-01-23T21:56:41.380Z,6.50
2019-01-23T21:59:12.670Z,7.27
2019-01-23T22:01:48.637Z,5.80
2019-01-23T22:04:26.142Z,4.97
2019-01-23T22:06:58.714Z,4.27
2019-01-23T22:09:32.928Z,4.87
2019-01-23T22:12:04.476Z,2.93
2019-01-23T22:14:36.059Z,2.93
2019-01-23T22:17:08.617Z,3.20
2019-01-23T22:19:47.920Z,3.10
2019-01-23T22:22:23.061Z,3.37
2019-01-23T22:24:56.873Z,3.60
2019-01-23T22:27:28.010Z,4.93
2019-01-23T22:30:02.879Z,6.47
2019-01-23T22:32:34.710Z,5.23
2019-01-23T22:35:06.754Z,5.77
2019-01-23T22:37:40.466Z,6.47
2019-01-23T22:40:17.701Z,6.03
2019-01-23T22:42:48.716Z,4.73
2019-01-23T22:45:20.635Z,3.83
2019-01-23T22:47:54.161Z,4.67
2019-01-23T22:50:26.763Z,4.60
2019-01-23T22:52:57.066Z,3.80
2019-01-23T22:55:31.590Z,4.73
2019-01-23T22:58:04.895Z,4.73
2019-01-23T23:01:19.216Z,4.60
2019-01-23T23:03:50.895Z,4.37
2019-01-23T23:06:20.580Z,4.00
2019-01-23T23:08:57.869Z,3.97
2019-01-23T23:11:33.531Z,4.60
2019-01-23T23:14:13.303Z,4.97
2019-01-23T23:16:49.633Z,5.07
2019-01-23T23:19:22.411Z,3.97
2019-01-23T23:21:52.195Z,4.53
2019-01-23T23:24:26.691Z,4.47
2019-01-23T23:26:58.592Z,4.07
2019-01-23T23:29:31.234Z,4.83
2019-01-23T23:32:02.253Z,5.10
2019-01-23T23:34:32.407Z,4.67
2019-01-23T23:37:04.607Z,5.20
2019-01-23T23:39:37.998Z,7.17
2019-01-23T23:42:10.400Z,5.83
2019-01-23T23:44:40.806Z,4.43
2019-01-23T23:47:11.698Z,6.10
2019-01-23T23:49:44.493Z,4.43
2019-01-23T23:52:13.623Z,17.50
2019-01-23T23:54:43.463Z,5.30
2019-01-23T23:57:16.074Z,3.60
2019-01-23T23:59:47.318Z,3.93
